createdAt,value
2019-06-26T00:00:00.183Z,24.75
2019-06-26T00:05:00.129Z,24.69
2019-06-26T00:10:00.115Z,24.63
2019-06-26T00:15:00.128Z,24.56
2019-06-26T00:20:00.128Z,24.5
2019-06-26T00:25:00.074Z,24.38
2019-06-26T00:30:00.119Z,24.31
2019-06-26T00:35:00.128Z,24.19
2019-06-26T00:40:00.140Z,24.19
2019-06-26T00:45:00.153Z,24.13
2019-06-26T00:50:00.082Z,24.13
2019-06-26T00:55:00.126Z,24.13
2019-06-26T01:00:00.147Z,24.06
2019-06-26T01:05:00.132Z,24
2019-06-26T01:10:00.079Z,23.94
2019-06-26T01:15:00.113Z,23.88
2019-06-26T01:20:00.070Z,23.81
2019-06-26T01:25:00.119Z,23.69
2019-06-26T01:30:00.126Z,23.63
2019-06-26T01:35:00.113Z,23.5
2019-06-26T01:40:00.130Z,23.44
2019-06-26T01:45:00.125Z,23.31
2019-06-26T01:50:00.129Z,23.25
2019-06-26T01:55:00.136Z,23.19
2019-06-26T02:00:00.071Z,23.13
2019-06-26T02:05:00.122Z,23.06
2019-06-26T02:10:00.130Z,23
2019-06-26T02:15:00.159Z,22.88
2019-06-26T02:20:00.127Z,22.81
2019-06-26T02:25:00.136Z,22.75
2019-06-26T02:30:00.174Z,22.69
2019-06-26T02:35:00.104Z,22.63
2019-06-26T02:40:00.145Z,22.56
2019-06-26T02:45:00.134Z,22.44
2019-06-26T02:50:00.130Z,22.44
2019-06-26T02:55:00.103Z,22.38
2019-06-26T03:00:00.083Z,22.44
2019-06-26T03:05:00.134Z,22.44
2019-06-26T03:10:00.141Z,22.5
2019-06-26T03:15:08.620Z,22.5
2019-06-26T03:20:00.078Z,22.56
2019-06-26T03:25:00.125Z,22.56
2019-06-26T03:30:00.143Z,22.56
2019-06-26T03:35:00.073Z,22.56
2019-06-26T03:40:00.121Z,23.38
2019-06-26T03:45:00.085Z,24.06
2019-06-26T03:50:00.134Z,24.69
2019-06-26T03:55:00.123Z,25.38
2019-06-26T04:00:00.131Z,25.81
2019-06-26T04:05:00.293Z,26.75
2019-06-26T04:10:00.075Z,27.31
2019-06-26T04:15:00.069Z,27.5
2019-06-26T04:20:00.105Z,27.56
2019-06-26T04:25:00.138Z,27.56
2019-06-26T04:30:00.112Z,27.5
2019-06-26T04:35:00.082Z,28
2019-06-26T04:40:00.118Z,28.25
2019-06-26T04:45:00.132Z,29
2019-06-26T04:50:00.132Z,28.94
2019-06-26T04:55:00.124Z,29.19
2019-06-26T05:00:00.075Z,29.38
2019-06-26T05:05:00.164Z,29.63
2019-06-26T05:10:00.107Z,29.94
2019-06-26T05:15:00.121Z,30.44
2019-06-26T05:20:00.211Z,30.69
2019-06-26T05:25:00.096Z,30.69
2019-06-26T05:30:00.288Z,31
2019-06-26T05:35:00.113Z,31.13
2019-06-26T05:40:00.178Z,31.63
2019-06-26T05:45:00.114Z,31.88
2019-06-26T05:50:00.123Z,31.81
2019-06-26T05:55:00.100Z,32.25
2019-06-26T06:00:00.111Z,32.19
2019-06-26T06:05:00.115Z,32.5
2019-06-26T06:10:00.112Z,32.81
2019-06-26T06:15:00.105Z,33.13
2019-06-26T06:20:00.120Z,33.13
2019-06-26T06:25:00.079Z,33.31
2019-06-26T06:30:00.143Z,33.56
2019-06-26T06:35:00.108Z,34.19
2019-06-26T06:40:00.311Z,34.25
2019-06-26T06:45:00.130Z,34.06
2019-06-26T06:50:00.111Z,34.25
2019-06-26T06:55:00.119Z,34.25
2019-06-26T07:00:00.123Z,34.13
2019-06-26T07:05:00.069Z,34.69
2019-06-26T07:10:00.117Z,35.19
2019-06-26T07:15:00.114Z,35.13
2019-06-26T07:20:00.115Z,35.31
2019-06-26T07:25:00.137Z,35.88
2019-06-26T07:30:00.142Z,36.13
2019-06-26T07:35:00.137Z,36.44
2019-06-26T07:40:01.998Z,36.44
2019-06-26T07:45:00.128Z,36.06
2019-06-26T07:50:00.131Z,35.94
2019-06-26T07:55:00.074Z,36.44
2019-06-26T08:00:00.267Z,36.88
2019-06-26T08:05:00.290Z,36.5
2019-06-26T08:10:00.106Z,36.13
2019-06-26T08:15:00.109Z,36.06
2019-06-26T08:20:00.132Z,36.13
2019-06-26T08:25:00.116Z,36.38
2019-06-26T08:30:00.113Z,36.19
2019-06-26T08:35:00.138Z,35.94
2019-06-26T08:40:00.118Z,36
2019-06-26T08:45:00.123Z,36.13
2019-06-26T08:50:00.118Z,36.38
2019-06-26T08:55:00.101Z,36.5
2019-06-26T09:00:00.101Z,36.69
2019-06-26T09:05:00.128Z,37
2019-06-26T09:10:00.171Z,37
2019-06-26T09:15:00.091Z,37.06
2019-06-26T09:20:00.184Z,37.5
2019-06-26T09:25:00.156Z,38.25
2019-06-26T09:30:00.107Z,37.88
2019-06-26T09:35:00.145Z,37.63
2019-06-26T09:40:00.120Z,37.88
2019-06-26T09:45:00.112Z,37.75
2019-06-26T09:50:00.137Z,37.31
2019-06-26T09:55:00.132Z,37.56
2019-06-26T10:00:00.116Z,37.75
2019-06-26T10:05:00.093Z,37.44
2019-06-26T10:10:00.141Z,37.38
2019-06-26T10:15:00.121Z,37.75
2019-06-26T10:20:00.118Z,37.69
2019-06-26T10:25:00.111Z,37.69
2019-06-26T10:30:00.155Z,37.38
2019-06-26T10:35:00.107Z,37.13
2019-06-26T10:40:00.161Z,36.63
2019-06-26T10:45:00.208Z,37.06
2019-06-26T10:50:00.109Z,37.19
2019-06-26T10:55:00.191Z,37.5
2019-06-26T11:00:00.083Z,37.56
2019-06-26T11:05:00.186Z,38
2019-06-26T11:10:00.102Z,37.94
2019-06-26T11:15:00.133Z,38.19
2019-06-26T11:20:00.212Z,38.31
2019-06-26T11:25:00.120Z,37.63
2019-06-26T11:30:00.067Z,37.44
2019-06-26T11:35:00.125Z,37.25
2019-06-26T11:40:00.102Z,37.63
2019-06-26T11:45:00.133Z,37.88
2019-06-26T11:50:00.586Z,37.56
2019-06-26T11:55:02.849Z,37.31
2019-06-26T12:00:00.205Z,37.44
2019-06-26T12:05:00.099Z,37.19
2019-06-26T12:10:00.169Z,37.31
2019-06-26T12:15:00.145Z,37.19
2019-06-26T12:20:13.537Z,37
2019-06-26T12:25:00.199Z,36.88
2019-06-26T12:30:00.235Z,37.25
2019-06-26T12:35:00.206Z,36.88
2019-06-26T12:40:00.792Z,36.56
2019-06-26T12:45:00.134Z,36.5
2019-06-26T12:50:00.113Z,36.81
2019-06-26T12:55:00.158Z,37
2019-06-26T13:00:00.124Z,37.25
2019-06-26T13:05:00.137Z,37.31
2019-06-26T13:10:00.108Z,37
2019-06-26T13:15:00.109Z,37
2019-06-26T13:20:00.115Z,36.94
2019-06-26T13:25:00.069Z,36.94
2019-06-26T13:30:00.131Z,37.06
2019-06-26T13:35:00.159Z,37.31
2019-06-26T13:40:00.124Z,37.25
2019-06-26T13:45:00.183Z,37.06
2019-06-26T13:50:00.119Z,37
2019-06-26T13:55:00.105Z,36.94
2019-06-26T14:00:00.102Z,36.81
2019-06-26T14:05:00.168Z,36.88
2019-06-26T14:10:00.141Z,36.94
2019-06-26T14:15:00.204Z,36.81
2019-06-26T14:20:00.143Z,36.75
2019-06-26T14:25:00.104Z,36.63
2019-06-26T14:30:00.120Z,36.75
2019-06-26T14:35:00.107Z,36.88
2019-06-26T14:40:00.146Z,36.88
2019-06-26T14:45:00.138Z,36.94
2019-06-26T14:50:00.144Z,36.88
2019-06-26T14:55:00.107Z,36.81
2019-06-26T15:00:00.123Z,36.63
2019-06-26T15:05:00.162Z,36.19
2019-06-26T15:10:00.140Z,36.38
2019-06-26T15:15:00.114Z,36.63
2019-06-26T15:20:00.100Z,36.38
2019-06-26T15:25:00.123Z,36.06
2019-06-26T15:30:00.148Z,35.88
2019-06-26T15:35:00.597Z,36.13
2019-06-26T15:40:00.119Z,36.19
2019-06-26T15:45:00.137Z,36.31
2019-06-26T15:50:00.079Z,36.19
2019-06-26T15:55:00.128Z,35.88
2019-06-26T16:00:00.095Z,35.81
2019-06-26T16:05:00.125Z,35.69
2019-06-26T16:10:00.148Z,35.63
2019-06-26T16:15:00.113Z,35.5
2019-06-26T16:20:00.216Z,35.31
2019-06-26T16:25:00.079Z,34.94
2019-06-26T16:30:00.145Z,34.81
2019-06-26T16:35:00.157Z,34.69
2019-06-26T16:40:00.125Z,34.63
2019-06-26T16:45:00.124Z,34.5
2019-06-26T16:50:00.074Z,34.38
2019-06-26T16:55:00.108Z,34.25
2019-06-26T17:00:09.205Z,34.19
2019-06-26T17:05:00.131Z,34
2019-06-26T17:10:00.127Z,33.88
2019-06-26T17:15:03.930Z,33.75
2019-06-26T17:20:00.195Z,33.69
2019-06-26T17:25:00.098Z,33.56
2019-06-26T17:30:00.164Z,33.44
2019-06-26T17:35:00.125Z,33.25
2019-06-26T17:40:00.199Z,33.06
2019-06-26T17:45:00.116Z,32.88
2019-06-26T17:50:00.173Z,32.81
2019-06-26T17:55:00.146Z,32.75
2019-06-26T18:00:00.099Z,32.69
2019-06-26T18:05:00.104Z,32.44
2019-06-26T18:10:00.072Z,32.38
2019-06-26T18:15:00.118Z,32.13
2019-06-26T18:20:00.127Z,31.94
2019-06-26T18:25:00.121Z,31.81
2019-06-26T18:30:00.099Z,31.69
2019-06-26T18:35:00.133Z,31.5
2019-06-26T18:40:00.073Z,31.44
2019-06-26T18:45:00.142Z,31.31
2019-06-26T18:50:00.141Z,31.19
2019-06-26T18:55:00.137Z,31.13
2019-06-26T19:00:00.124Z,31
2019-06-26T19:05:00.124Z,30.88
2019-06-26T19:10:00.106Z,30.81
2019-06-26T19:15:00.139Z,30.69
2019-06-26T19:20:00.111Z,30.56
2019-06-26T19:25:00.121Z,30.44
2019-06-26T19:30:00.130Z,30.31
2019-06-26T19:35:07.823Z,30.13
2019-06-26T19:40:00.066Z,30
2019-06-26T19:45:00.118Z,29.88
2019-06-26T19:50:00.123Z,29.75
2019-06-26T19:55:00.072Z,29.5
2019-06-26T20:00:00.193Z,29.44
2019-06-26T20:05:00.149Z,29.31
2019-06-26T20:10:01.799Z,29.13
2019-06-26T20:15:00.140Z,29
2019-06-26T20:20:00.135Z,28.88
2019-06-26T20:25:00.205Z,28.69
2019-06-26T20:30:00.119Z,28.56
2019-06-26T20:35:00.084Z,28.38
2019-06-26T20:40:00.130Z,28.25
2019-06-26T20:45:00.169Z,28.13
2019-06-26T20:50:00.066Z,28
2019-06-26T20:55:02.301Z,27.88
2019-06-26T21:00:00.319Z,27.69
2019-06-26T21:05:00.126Z,27.5
2019-06-26T21:10:00.130Z,27.38
2019-06-26T21:15:00.297Z,27.19
2019-06-26T21:20:00.141Z,27.13
2019-06-26T21:25:13.625Z,27
2019-06-26T21:30:00.137Z,26.88
2019-06-26T21:35:00.125Z,26.75
2019-06-26T21:40:00.108Z,26.69
2019-06-26T21:45:00.101Z,26.63
2019-06-26T21:50:00.112Z,26.56
2019-06-26T21:55:00.138Z,26.44
2019-06-26T22:00:00.137Z,26.25
2019-06-26T22:05:00.138Z,26.06
2019-06-26T22:10:00.104Z,26.06
2019-06-26T22:15:00.131Z,25.94
2019-06-26T22:20:00.074Z,25.75
2019-06-26T22:25:00.101Z,25.63
2019-06-26T22:30:00.131Z,25.5
2019-06-26T22:35:00.104Z,25.31
2019-06-26T22:40:00.144Z,25.25
2019-06-26T22:45:00.064Z,25.13
2019-06-26T22:50:00.124Z,25.06
2019-06-26T22:55:00.166Z,25.06
2019-06-26T23:00:00.085Z,24.94
2019-06-26T23:05:00.146Z,24.88
2019-06-26T23:10:00.128Z,24.88
2019-06-26T23:15:00.116Z,24.69
2019-06-26T23:20:00.163Z,24.56
2019-06-26T23:25:00.125Z,24.44
2019-06-26T23:30:00.108Z,24.38
2019-06-26T23:35:00.070Z,24.19
2019-06-26T23:40:00.104Z,24.13
2019-06-26T23:45:00.131Z,24.06
2019-06-26T23:50:00.129Z,23.81
2019-06-26T23:55:00.119Z,23.81
